Accueil
METAR-TAF:

METAR-TAF

Aéroports :

Kosrae, Micronésie

Aéroport international de Kosrae

latitude: 05-21N, longitude: 162-57E, altitude: 3 m

Observation

Le bulletin a été fait il y a 10 heures et 40 minutes, à 01:50 UTC
Vent 10 kt de est/nord-est
Température 31°C
Humidité 66%
Pression 1008 hPa
Visibilité: 16.1 km
Nuages fragmentés à une hauteur de 2100 ft
Nuages fragmentés à une hauteur de 13000 ft
Ciel couvert à une hauteur de 30000 ft

METAR: PTSA 230150Z 06010KT 10SM BKN021 BKN130 OVC300 31/24 A2978 RMK LAST

Heure: 23:30 (12:30 UTC)

Prévision

Le bulletin a été fait il y a 13 heures et 0 minutes, à 23:30 UTC
Prévision valable du 23 à 00 UTC au 23 à 24 UTC
Vent 11 kt de est
Visibilité: 10 km
Quelques nuages à une hauteur de 1800 ft
Nuages fragmentés à une hauteur de 14000 ft
averses à proximité

TAF: PTSA 222330Z 2300/2324 09011KT P6SM VCSH FEW018 BKN140

Observations et prévisions météorologiques de plus de 4000 aéroports (messages METAR et TAF).

Les stations disponibles sont représentées par des disques jaunes et rouges sur la carte.

Passer la souris dessus pour voir le nom de la station.

Cliquer dessus pour voir les observations et prévisions météorologiques.

Pour changer de carte: cliquez sur les boutons verts avec une croix noire pour zoomer, sur le bouton vert avec un tiret pour effectuer un zoom arrière, ou sur les flèches vertes pour les cartes adjacentes.


METAR-TAF: